createdAt,value
2022-09-26T00:09:07.085Z,992.82
2022-09-26T00:19:14.501Z,992.72
2022-09-26T00:29:21.842Z,992.68
2022-09-26T00:39:28.855Z,992.57
2022-09-26T00:49:36.528Z,992.46
2022-09-26T00:59:43.840Z,992.38
2022-09-26T01:09:50.928Z,992.32
2022-09-26T01:19:58.106Z,992.26
2022-09-26T01:30:05.651Z,992.27
2022-09-26T01:40:12.628Z,992.22
2022-09-26T01:50:19.915Z,992.18
2022-09-26T02:00:27.281Z,992.13
2022-09-26T02:10:34.456Z,992.05
2022-09-26T02:20:41.418Z,991.95
2022-09-26T02:30:48.395Z,991.84
2022-09-26T02:40:56.106Z,991.85
2022-09-26T02:51:01.737Z,991.78
2022-09-26T03:01:08.754Z,991.74
2022-09-26T03:11:15.893Z,991.60
2022-09-26T03:21:23.059Z,991.52
2022-09-26T03:31:29.887Z,991.42
2022-09-26T03:41:37.161Z,991.40
2022-09-26T03:51:44.213Z,991.43
2022-09-26T04:01:50.511Z,991.38
2022-09-26T04:11:56.855Z,991.27
2022-09-26T04:22:02.899Z,991.14
2022-09-26T04:32:09.326Z,991.06
2022-09-26T04:42:15.771Z,990.96
2022-09-26T04:52:22.031Z,990.92
2022-09-26T05:02:30.288Z,990.84
2022-09-26T05:12:36.622Z,990.88
2022-09-26T05:22:42.950Z,990.94
2022-09-26T05:32:49.029Z,990.87
2022-09-26T05:42:55.424Z,990.82
2022-09-26T05:53:01.493Z,990.82
2022-09-26T06:03:07.805Z,990.72
2022-09-26T06:13:14.154Z,990.69
2022-09-26T06:23:20.388Z,990.62
2022-09-26T06:33:29.866Z,990.54
2022-09-26T06:43:37.882Z,990.52
2022-09-26T06:53:44.276Z,990.41
2022-09-26T07:03:50.379Z,990.36
2022-09-26T07:13:56.584Z,990.20
2022-09-26T07:24:02.527Z,990.22
2022-09-26T07:34:09.014Z,990.11
2022-09-26T07:45:28.861Z,990.06
2022-09-26T07:54:26.812Z,990.16
2022-09-26T08:04:33.253Z,990.04
2022-09-26T08:14:39.436Z,989.95
2022-09-26T08:24:46.045Z,989.94
2022-09-26T08:34:52.260Z,989.76
2022-09-26T08:44:58.421Z,989.71
2022-09-26T08:55:04.801Z,989.61
2022-09-26T09:05:11.190Z,989.59
2022-09-26T09:15:26.219Z,989.45
2022-09-26T09:25:29.155Z,989.37
2022-09-26T09:35:35.619Z,989.40
2022-09-26T09:45:41.850Z,989.36
2022-09-26T09:55:48.112Z,989.20
2022-09-26T10:05:54.170Z,989.21
2022-09-26T10:16:00.413Z,989.08
2022-09-26T10:26:06.277Z,989.02
2022-09-26T10:36:12.607Z,988.93
2022-09-26T10:46:19.278Z,988.81
2022-09-26T10:56:25.793Z,988.66
2022-09-26T11:06:32.230Z,988.56
2022-09-26T11:16:38.392Z,988.62
2022-09-26T11:26:44.774Z,988.40
2022-09-26T11:36:51.144Z,988.21
2022-09-26T11:46:56.928Z,988.14
2022-09-26T11:57:03.298Z,987.91
2022-09-26T12:07:09.959Z,987.76
2022-09-26T12:17:15.667Z,987.65
2022-09-26T12:27:21.183Z,987.44
2022-09-26T12:37:26.911Z,987.39
2022-09-26T12:47:32.743Z,987.16
2022-09-26T12:57:39.038Z,987.10
2022-09-26T13:07:44.922Z,987.07
2022-09-26T13:17:51.951Z,986.90
2022-09-26T13:27:57.484Z,986.92
2022-09-26T13:38:08.302Z,986.77
2022-09-26T13:48:14.506Z,986.68
2022-09-26T13:58:22.598Z,986.52
2022-09-26T14:08:29.225Z,986.32
2022-09-26T14:18:37.284Z,986.37
2022-09-26T14:28:43.295Z,986.19
2022-09-26T14:38:51.353Z,986.09
2022-09-26T14:48:56.936Z,986.03
2022-09-26T14:59:03.966Z,986.01
2022-09-26T15:09:09.569Z,986.02
2022-09-26T15:19:17.346Z,985.90
2022-09-26T15:29:23.517Z,985.80
2022-09-26T15:39:30.111Z,985.72
2022-09-26T15:49:36.330Z,985.55
2022-09-26T15:59:42.620Z,985.40
2022-09-26T16:09:49.022Z,985.45
2022-09-26T16:19:54.906Z,985.40
2022-09-26T16:30:04.895Z,985.30
2022-09-26T16:40:13.765Z,985.22
2022-09-26T16:50:19.742Z,985.20
2022-09-26T17:00:26.027Z,985.12
2022-09-26T17:10:32.291Z,985.12
2022-09-26T17:20:38.457Z,985.18
2022-09-26T17:30:44.812Z,985.14
2022-09-26T17:40:52.646Z,985.06
2022-09-26T17:50:58.207Z,985.03
2022-09-26T18:01:06.197Z,984.87
2022-09-26T18:11:12.372Z,984.71
2022-09-26T18:21:19.435Z,984.69
2022-09-26T18:31:25.322Z,984.55
2022-09-26T18:41:34.048Z,984.49
2022-09-26T18:51:40.262Z,984.41
2022-09-26T19:01:46.751Z,984.38
2022-09-26T19:11:53.465Z,984.22
2022-09-26T19:21:59.748Z,984.12
2022-09-26T19:32:05.893Z,984.07
2022-09-26T19:42:12.381Z,983.99
2022-09-26T19:52:18.584Z,983.95
2022-09-26T20:02:24.859Z,983.86
2022-09-26T20:12:31.191Z,983.70
2022-09-26T20:22:37.373Z,983.62
2022-09-26T20:32:43.548Z,983.45
2022-09-26T20:42:49.969Z,983.24
2022-09-26T20:52:55.927Z,983.11
2022-09-26T21:03:02.147Z,982.84
2022-09-26T21:13:08.015Z,982.70
2022-09-26T21:23:14.177Z,982.60
2022-09-26T21:33:20.509Z,982.47
2022-09-26T21:43:26.896Z,982.26
2022-09-26T21:53:33.184Z,982.10
2022-09-26T22:03:39.322Z,981.95
2022-09-26T22:13:45.072Z,981.72
2022-09-26T22:23:52.773Z,981.57
2022-09-26T22:33:58.375Z,981.31
2022-09-26T22:44:04.750Z,981.29
2022-09-26T22:54:10.738Z,981.21
2022-09-26T23:04:16.841Z,981.05
2022-09-26T23:14:22.979Z,980.88
2022-09-26T23:24:30.992Z,980.79
2022-09-26T23:34:36.932Z,980.62
2022-09-26T23:44:45.226Z,980.39
2022-09-26T23:54:51.507Z,980.25
